createdAt,value
2019-05-11T00:00:45.820Z,15.60
2019-05-11T00:03:15.628Z,15.73
2019-05-11T00:05:45.463Z,14.63
2019-05-11T00:08:15.149Z,20.20
2019-05-11T00:10:44.913Z,16.43
2019-05-11T00:13:14.714Z,15.40
2019-05-11T00:15:44.287Z,16.33
2019-05-11T00:18:14.002Z,14.67
2019-05-11T00:20:43.749Z,15.10
2019-05-11T00:23:13.224Z,14.70
2019-05-11T00:25:42.808Z,16.70
2019-05-11T00:28:12.393Z,14.83
2019-05-11T00:30:42.011Z,15.97
2019-05-11T00:33:11.620Z,15.63
2019-05-11T00:35:42.742Z,16.73
2019-05-11T00:38:12.193Z,13.03
2019-05-11T00:40:41.972Z,16.70
2019-05-11T00:43:11.503Z,14.33
2019-05-11T00:45:41.256Z,16.00
2019-05-11T00:48:10.884Z,17.33
2019-05-11T00:50:40.675Z,17.07
2019-05-11T00:53:10.166Z,14.80
2019-05-11T00:55:39.734Z,15.40
2019-05-11T00:58:09.304Z,16.33
2019-05-11T01:00:38.835Z,15.00
2019-05-11T01:03:08.368Z,15.00
2019-05-11T01:05:37.973Z,15.23
2019-05-11T01:08:07.471Z,18.10
2019-05-11T01:10:42.159Z,17.23
2019-05-11T01:13:08.422Z,16.13
2019-05-11T01:15:37.972Z,17.23
2019-05-11T01:18:07.457Z,17.37
2019-05-11T01:20:37.058Z,18.97
2019-05-11T01:23:06.690Z,18.93
2019-05-11T01:25:36.190Z,18.40
2019-05-11T01:28:05.751Z,20.33
2019-05-11T01:30:38.397Z,19.50
2019-05-11T01:33:06.762Z,17.30
2019-05-11T01:35:36.326Z,21.30
2019-05-11T01:38:06.045Z,18.37
2019-05-11T01:40:35.508Z,17.50
2019-05-11T01:43:05.019Z,19.43
2019-05-11T01:45:35.303Z,17.73
2019-05-11T01:48:04.877Z,20.33
2019-05-11T01:50:34.353Z,17.67
2019-05-11T01:53:03.920Z,18.10
2019-05-11T01:55:33.452Z,22.07
2019-05-11T01:58:02.967Z,19.17
2019-05-11T02:00:32.442Z,18.80
2019-05-11T02:03:01.947Z,19.67
2019-05-11T02:05:31.914Z,19.27
2019-05-11T02:08:02.702Z,19.43
2019-05-11T02:10:32.642Z,21.77
2019-05-11T02:13:02.391Z,21.57
2019-05-11T02:15:32.100Z,23.07
2019-05-11T02:18:01.902Z,22.87
2019-05-11T02:20:31.430Z,23.53
2019-05-11T02:23:01.031Z,22.53
2019-05-11T02:25:30.584Z,22.00
2019-05-11T02:28:00.121Z,21.73
2019-05-11T02:30:29.655Z,22.07
2019-05-11T02:32:59.150Z,20.60
2019-05-11T02:35:28.679Z,20.90
2019-05-11T02:37:58.318Z,20.17
2019-05-11T02:40:28.058Z,19.70
2019-05-11T02:42:57.590Z,20.00
2019-05-11T02:45:39.185Z,23.77
2019-05-11T02:48:08.875Z,23.13
2019-05-11T02:50:39.522Z,21.63
2019-05-11T02:53:10.346Z,21.60
2019-05-11T02:55:40.470Z,24.83
2019-05-11T02:58:10.286Z,32.47
2019-05-11T03:00:45.554Z,25.10
2019-05-11T03:03:15.019Z,29.50
2019-05-11T03:05:44.660Z,26.37
2019-05-11T03:08:14.355Z,30.03
2019-05-11T03:10:44.038Z,25.80
2019-05-11T03:13:13.587Z,27.50
2019-05-11T03:15:43.517Z,28.70
2019-05-11T03:18:12.950Z,28.33
2019-05-11T03:20:42.628Z,27.20
2019-05-11T03:23:12.101Z,29.70
2019-05-11T03:25:41.616Z,24.40
2019-05-11T03:28:11.102Z,24.33
2019-05-11T03:30:40.798Z,28.50
2019-05-11T03:33:10.347Z,28.07
2019-05-11T03:35:39.865Z,28.90
2019-05-11T03:38:09.321Z,30.50
2019-05-11T03:40:38.944Z,27.00
2019-05-11T03:43:08.401Z,28.90
2019-05-11T03:45:37.895Z,29.87
2019-05-11T03:48:07.397Z,26.33
2019-05-11T03:50:36.900Z,28.13
2019-05-11T03:53:06.402Z,31.90
2019-05-11T03:55:35.877Z,29.27
2019-05-11T03:58:05.347Z,32.63
2019-05-11T04:00:34.932Z,31.73
2019-05-11T04:03:04.431Z,32.77
2019-05-11T04:05:33.994Z,33.70
2019-05-11T04:08:03.496Z,33.53
2019-05-11T04:10:33.035Z,35.63
2019-05-11T04:13:02.569Z,32.60
2019-05-11T04:15:32.045Z,36.40
2019-05-11T04:18:01.658Z,40.80
2019-05-11T04:20:31.124Z,43.47
2019-05-11T04:23:00.697Z,40.07
2019-05-11T04:25:30.175Z,48.07
2019-05-11T04:27:59.689Z,53.60
2019-05-11T04:30:29.157Z,47.23
2019-05-11T04:32:58.782Z,50.20
2019-05-11T04:35:28.423Z,45.93
2019-05-11T04:37:57.908Z,44.00
2019-05-11T04:40:27.427Z,46.10
2019-05-11T04:42:57.011Z,43.70
2019-05-11T04:45:26.653Z,43.30
2019-05-11T04:47:56.305Z,40.97
2019-05-11T04:50:25.853Z,41.37
2019-05-11T04:52:55.390Z,40.77
2019-05-11T04:55:25.030Z,42.20
2019-05-11T04:57:54.897Z,45.17
2019-05-11T05:00:24.882Z,41.43
2019-05-11T05:02:54.672Z,36.63
2019-05-11T05:05:24.461Z,44.03
2019-05-11T05:08:07.476Z,44.97
2019-05-11T05:10:25.185Z,48.13
2019-05-11T05:13:08.422Z,43.80
2019-05-11T05:15:25.915Z,44.57
2019-05-11T05:17:55.773Z,48.57
2019-05-11T05:20:25.422Z,62.13
2019-05-11T05:22:54.907Z,61.30
2019-05-11T05:25:24.389Z,77.53
2019-05-11T05:27:53.892Z,71.80
2019-05-11T05:30:23.373Z,68.33
2019-05-11T05:32:52.869Z,72.23
2019-05-11T05:35:22.358Z,76.23
2019-05-11T05:37:51.930Z,69.97
2019-05-11T05:40:21.437Z,67.17
2019-05-11T05:42:50.915Z,70.90
2019-05-11T05:45:20.565Z,65.90
2019-05-11T05:47:50.358Z,74.20
2019-05-11T05:50:20.024Z,86.77
2019-05-11T05:52:49.661Z,75.13
2019-05-11T05:55:19.349Z,71.57
2019-05-11T05:57:48.840Z,68.83
2019-05-11T06:00:18.774Z,70.87
2019-05-11T06:02:48.364Z,65.97
2019-05-11T06:05:17.948Z,66.77
2019-05-11T06:07:47.402Z,68.87
2019-05-11T06:10:17.476Z,69.07
2019-05-11T06:12:46.927Z,66.60
2019-05-11T06:15:17.063Z,66.17
2019-05-11T06:17:46.579Z,68.43
2019-05-11T06:20:16.447Z,67.67
2019-05-11T06:22:46.011Z,64.13
2019-05-11T06:25:15.575Z,67.37
2019-05-11T06:27:45.312Z,66.83
2019-05-11T06:30:15.504Z,68.83
2019-05-11T06:32:44.951Z,66.27
2019-05-11T06:35:14.519Z,79.10
2019-05-11T06:37:44.018Z,67.30
2019-05-11T06:40:13.726Z,69.20
2019-05-11T06:42:43.235Z,72.27
2019-05-11T06:45:13.084Z,67.03
2019-05-11T06:47:42.805Z,75.30
2019-05-11T06:50:12.880Z,64.03
2019-05-11T06:52:42.409Z,73.90
2019-05-11T06:55:12.365Z,72.13
2019-05-11T06:57:42.049Z,75.77
2019-05-11T07:00:12.725Z,67.07
2019-05-11T07:02:42.236Z,64.53
2019-05-11T07:05:12.050Z,68.03
2019-05-11T07:07:47.389Z,64.80
2019-05-11T07:10:13.206Z,61.67
2019-05-11T07:12:42.720Z,61.67
2019-05-11T07:15:12.924Z,59.97
2019-05-11T07:17:42.423Z,59.13
2019-05-11T07:20:12.554Z,57.43
2019-05-11T07:22:42.100Z,58.57
2019-05-11T07:25:12.059Z,56.57
2019-05-11T07:27:41.691Z,60.00
2019-05-11T07:30:11.932Z,55.63
2019-05-11T07:32:41.643Z,61.10
2019-05-11T07:35:11.400Z,52.10
2019-05-11T07:37:40.922Z,53.37
2019-05-11T07:40:10.862Z,53.27
2019-05-11T07:42:40.365Z,55.77
2019-05-11T07:45:10.351Z,57.60
2019-05-11T07:47:39.880Z,52.63
2019-05-11T07:50:10.104Z,52.83
2019-05-11T07:52:39.643Z,55.57
2019-05-11T07:55:09.797Z,52.10
2019-05-11T07:57:39.462Z,52.23
2019-05-11T08:00:09.753Z,57.33
2019-05-11T08:02:39.437Z,53.67
2019-05-11T08:05:09.485Z,46.60
2019-05-11T08:07:39.096Z,52.50
2019-05-11T08:10:10.086Z,46.67
2019-05-11T08:12:39.790Z,48.77
2019-05-11T08:15:13.706Z,45.30
2019-05-11T08:17:41.480Z,44.90
2019-05-11T08:20:11.554Z,46.00
2019-05-11T08:22:41.038Z,40.03
2019-05-11T08:25:11.452Z,44.50
2019-05-11T08:27:40.946Z,39.87
2019-05-11T08:30:13.922Z,36.90
2019-05-11T08:32:43.579Z,44.10
2019-05-11T08:35:14.072Z,33.10
2019-05-11T08:37:43.696Z,38.33
2019-05-11T08:40:18.314Z,43.50
2019-05-11T08:42:48.278Z,45.03
2019-05-11T08:45:24.317Z,41.57
2019-05-11T08:47:50.219Z,46.80
2019-05-11T08:50:19.738Z,39.10
2019-05-11T08:52:51.015Z,36.17
2019-05-11T08:55:20.683Z,43.83
2019-05-11T08:57:50.185Z,45.20
2019-05-11T09:00:21.727Z,44.03
2019-05-11T09:02:51.310Z,33.90
2019-05-11T09:05:20.850Z,37.00
2019-05-11T09:07:50.389Z,34.33
2019-05-11T09:10:19.968Z,37.40
2019-05-11T09:12:49.484Z,31.53
2019-05-11T09:15:32.329Z,34.23
2019-05-11T09:17:50.398Z,33.13
2019-05-11T09:20:20.527Z,31.17
2019-05-11T09:22:50.060Z,31.33
2019-05-11T09:25:19.663Z,32.17
2019-05-11T09:27:49.183Z,30.60
2019-05-11T09:30:19.255Z,28.03
2019-05-11T09:32:48.789Z,28.73
2019-05-11T09:35:19.065Z,28.53
2019-05-11T09:37:48.683Z,28.23
2019-05-11T09:40:18.601Z,29.33
2019-05-11T09:42:48.237Z,25.03
2019-05-11T09:45:18.638Z,26.07
2019-05-11T09:47:48.858Z,23.13
2019-05-11T09:50:18.761Z,25.13
2019-05-11T09:52:48.986Z,23.93
2019-05-11T09:55:19.258Z,24.27
2019-05-11T09:57:49.180Z,24.53
2019-05-11T10:00:19.245Z,20.77
2019-05-11T10:02:49.025Z,23.63
2019-05-11T10:05:19.043Z,27.47
2019-05-11T10:07:48.840Z,24.60
2019-05-11T10:10:18.973Z,25.30
2019-05-11T10:12:52.348Z,25.67
2019-05-11T10:15:20.546Z,24.30
2019-05-11T10:17:50.064Z,24.27
2019-05-11T10:20:19.633Z,25.90
2019-05-11T10:22:49.174Z,24.67
2019-05-11T10:25:18.848Z,27.53
2019-05-11T10:27:49.113Z,27.53
2019-05-11T10:30:19.546Z,24.53
2019-05-11T10:32:49.467Z,27.80
2019-05-11T10:35:19.017Z,25.53
2019-05-11T10:37:48.517Z,24.77
2019-05-11T10:40:19.094Z,25.80
2019-05-11T10:42:48.929Z,22.47
2019-05-11T10:45:18.598Z,25.73
2019-05-11T10:47:48.947Z,26.00
2019-05-11T10:50:19.032Z,24.90
2019-05-11T10:52:48.998Z,22.60
2019-05-11T10:55:19.583Z,28.40
2019-05-11T10:57:49.208Z,27.73
2019-05-11T11:00:21.182Z,26.77
2019-05-11T11:02:50.761Z,24.00
2019-05-11T11:05:20.305Z,28.33
2019-05-11T11:07:49.911Z,24.43
2019-05-11T11:10:19.672Z,23.23
2019-05-11T11:12:49.434Z,26.77
2019-05-11T11:15:19.953Z,24.53
2019-05-11T11:17:49.471Z,24.10
2019-05-11T11:20:19.687Z,29.93
2019-05-11T11:22:49.334Z,22.80
2019-05-11T11:25:18.969Z,23.30
2019-05-11T11:27:48.946Z,21.73
2019-05-11T11:30:19.425Z,20.13
2019-05-11T11:32:49.034Z,19.63
2019-05-11T11:35:18.990Z,23.20
2019-05-11T11:37:48.721Z,22.00
2019-05-11T11:40:18.750Z,22.33
2019-05-11T11:42:49.167Z,21.13
2019-05-11T11:45:19.425Z,26.43
2019-05-11T11:47:49.634Z,25.67
2019-05-11T11:50:19.445Z,25.10
2019-05-11T11:52:49.008Z,29.97
2019-05-11T11:55:18.917Z,27.70
2019-05-11T11:57:50.397Z,29.83
2019-05-11T12:00:21.372Z,26.80
2019-05-11T12:02:51.071Z,29.00
2019-05-11T12:05:20.612Z,23.93
2019-05-11T12:07:50.226Z,22.07
2019-05-11T12:10:19.944Z,23.10
2019-05-11T12:12:49.529Z,23.50
2019-05-11T12:15:19.371Z,17.37
2019-05-11T12:17:48.860Z,15.73
2019-05-11T12:20:18.629Z,15.27
2019-05-11T12:22:48.113Z,17.63
2019-05-11T12:25:18.528Z,15.40
2019-05-11T12:27:49.047Z,15.90
2019-05-11T12:30:19.257Z,16.20
2019-05-11T12:32:50.465Z,14.63
2019-05-11T12:35:20.275Z,11.03
2019-05-11T12:37:49.841Z,12.77
2019-05-11T12:40:19.954Z,13.10
2019-05-11T12:42:49.508Z,8.63
2019-05-11T12:45:19.359Z,11.07
2019-05-11T12:47:49.088Z,9.40
2019-05-11T12:50:19.388Z,8.63
2019-05-11T12:52:48.886Z,9.00
2019-05-11T12:55:19.472Z,10.50
2019-05-11T12:57:49.137Z,10.77
2019-05-11T13:00:20.174Z,9.57
2019-05-11T13:02:49.855Z,10.10
2019-05-11T13:05:19.365Z,9.73
2019-05-11T13:07:49.100Z,9.33
2019-05-11T13:10:18.773Z,9.53
2019-05-11T13:12:49.367Z,9.53
2019-05-11T13:15:20.226Z,9.97
2019-05-11T13:17:49.783Z,10.67
2019-05-11T13:20:19.848Z,11.63
2019-05-11T13:22:49.447Z,12.07
2019-05-11T13:25:19.017Z,9.17
2019-05-11T13:27:49.209Z,13.33
2019-05-11T13:30:19.509Z,9.70
2019-05-11T13:32:49.354Z,9.43
2019-05-11T13:35:18.966Z,10.33
2019-05-11T13:37:48.674Z,9.27
2019-05-11T13:40:18.793Z,9.00
2019-05-11T13:42:49.145Z,8.40
2019-05-11T13:45:19.164Z,8.90
2019-05-11T13:47:54.671Z,9.50
2019-05-11T13:50:20.466Z,8.73
2019-05-11T13:52:50.016Z,9.20
2019-05-11T13:55:19.489Z,11.70
2019-05-11T13:57:49.040Z,13.83
2019-05-11T14:00:19.279Z,9.40
2019-05-11T14:02:49.357Z,13.63
2019-05-11T14:05:19.397Z,7.73
2019-05-11T14:07:48.917Z,9.80
2019-05-11T14:10:18.530Z,8.90
2019-05-11T14:12:48.260Z,9.23
2019-05-11T14:15:19.158Z,11.80
2019-05-11T14:18:03.525Z,9.27
2019-05-11T14:20:20.774Z,9.70
2019-05-11T14:22:50.372Z,8.43
2019-05-11T14:25:20.005Z,10.30
2019-05-11T14:27:49.534Z,8.13
2019-05-11T14:30:19.327Z,8.10
2019-05-11T14:32:49.210Z,11.80
2019-05-11T14:35:19.165Z,8.63
2019-05-11T14:37:48.951Z,10.30
2019-05-11T14:40:18.530Z,8.50
2019-05-11T14:42:48.915Z,7.43
2019-05-11T14:45:19.116Z,11.07
2019-05-11T14:47:48.730Z,8.30
2019-05-11T14:50:19.505Z,8.00
2019-05-11T14:52:49.378Z,10.93
2019-05-11T14:55:19.170Z,8.50
2019-05-11T14:57:48.969Z,8.50
2019-05-11T15:00:18.859Z,9.37
2019-05-11T15:02:49.495Z,8.13
2019-05-11T15:05:21.792Z,8.40
2019-05-11T15:07:52.762Z,9.30
2019-05-11T15:10:23.565Z,9.00
2019-05-11T15:12:53.203Z,10.03
2019-05-11T15:15:22.880Z,9.70
2019-05-11T15:17:52.476Z,14.67
2019-05-11T15:20:22.333Z,9.30
2019-05-11T15:22:52.481Z,8.07
2019-05-11T15:25:22.242Z,8.50
2019-05-11T15:27:51.886Z,8.80
2019-05-11T15:30:22.633Z,10.10
2019-05-11T15:32:52.426Z,9.27
2019-05-11T15:35:21.972Z,12.93
2019-05-11T15:37:51.538Z,9.00
2019-05-11T15:40:22.915Z,12.20
2019-05-11T15:42:52.580Z,10.50
2019-05-11T15:45:22.253Z,13.00
2019-05-11T15:47:51.844Z,8.30
2019-05-11T15:50:21.803Z,9.90
2019-05-11T15:52:51.458Z,10.20
2019-05-11T15:55:22.161Z,9.17
2019-05-11T15:57:51.789Z,9.00
2019-05-11T16:00:23.277Z,8.50
2019-05-11T16:02:52.775Z,8.77
2019-05-11T16:05:22.361Z,14.13
2019-05-11T16:07:51.941Z,14.13
2019-05-11T16:10:21.643Z,11.47
2019-05-11T16:12:51.213Z,13.30
2019-05-11T16:15:20.838Z,9.33
2019-05-11T16:17:50.862Z,9.80
2019-05-11T16:20:20.750Z,8.33
2019-05-11T16:22:50.376Z,10.83
2019-05-11T16:25:20.336Z,11.67
2019-05-11T16:27:50.085Z,10.60
2019-05-11T16:30:21.711Z,9.60
2019-05-11T16:32:51.268Z,9.23
2019-05-11T16:35:21.089Z,7.13
2019-05-11T16:37:50.660Z,8.80
2019-05-11T16:40:21.117Z,9.53
2019-05-11T16:42:51.089Z,8.07
2019-05-11T16:45:23.786Z,13.10
2019-05-11T16:47:52.774Z,10.93
2019-05-11T16:50:22.438Z,8.40
2019-05-11T16:52:52.017Z,7.60
2019-05-11T16:55:21.598Z,9.17
2019-05-11T16:57:51.171Z,8.33
2019-05-11T17:00:20.938Z,8.90
2019-05-11T17:02:50.593Z,8.67
2019-05-11T17:05:26.674Z,9.30
2019-05-11T17:07:51.593Z,9.03
2019-05-11T17:10:21.420Z,9.10
2019-05-11T17:12:50.927Z,8.60
2019-05-11T17:15:20.599Z,9.97
2019-05-11T17:17:50.339Z,9.87
2019-05-11T17:20:20.750Z,7.47
2019-05-11T17:22:53.765Z,6.97
2019-05-11T17:25:22.175Z,3.70
2019-05-11T17:27:51.668Z,2.70
2019-05-11T17:30:21.480Z,4.00
2019-05-11T17:32:50.990Z,6.53
2019-05-11T17:35:20.490Z,6.07
2019-05-11T17:37:50.043Z,3.80
2019-05-11T17:40:23.293Z,6.77
2019-05-11T17:42:53.864Z,4.47
2019-05-11T17:45:23.166Z,6.27
2019-05-11T17:47:52.941Z,4.80
2019-05-11T17:50:22.696Z,5.23
2019-05-11T17:52:52.170Z,4.13
2019-05-11T17:55:21.686Z,3.73
2019-05-11T17:57:53.895Z,3.00
2019-05-11T18:00:23.317Z,3.97
2019-05-11T18:02:54.200Z,3.80
2019-05-11T18:05:23.972Z,4.80
2019-05-11T18:07:53.683Z,5.73
2019-05-11T18:10:23.663Z,7.97
2019-05-11T18:12:53.208Z,3.10
2019-05-11T18:15:22.857Z,3.27
2019-05-11T18:17:52.974Z,4.30
2019-05-11T18:20:22.566Z,4.83
2019-05-11T18:22:52.143Z,3.33
2019-05-11T18:25:21.847Z,4.93
2019-05-11T18:27:51.422Z,5.80
2019-05-11T18:30:21.065Z,7.23
2019-05-11T18:32:50.681Z,2.83
2019-05-11T18:35:20.319Z,2.67
2019-05-11T18:37:49.832Z,5.63
2019-05-11T18:40:19.958Z,2.40
2019-05-11T18:42:49.563Z,3.23
2019-05-11T18:45:19.546Z,5.20
2019-05-11T18:47:49.804Z,6.00
2019-05-11T18:50:30.379Z,3.80
2019-05-11T18:52:51.835Z,2.50
2019-05-11T18:55:21.521Z,4.73
2019-05-11T18:57:51.258Z,2.70
2019-05-11T19:00:21.147Z,2.73
2019-05-11T19:02:50.835Z,7.67
2019-05-11T19:05:20.815Z,4.67
2019-05-11T19:07:50.697Z,7.90
2019-05-11T19:10:20.300Z,3.10
2019-05-11T19:12:49.917Z,4.33
2019-05-11T19:15:19.931Z,1.93
2019-05-11T19:17:49.617Z,3.40
2019-05-11T19:20:19.589Z,8.33
2019-05-11T19:22:49.244Z,6.87
2019-05-11T19:25:18.763Z,3.57
2019-05-11T19:27:50.764Z,6.13
2019-05-11T19:30:20.207Z,4.50
2019-05-11T19:32:49.954Z,4.20
2019-05-11T19:35:21.124Z,4.60
2019-05-11T19:37:51.065Z,6.07
2019-05-11T19:40:20.557Z,4.70
2019-05-11T19:42:54.510Z,3.70
2019-05-11T19:45:24.430Z,2.40
2019-05-11T19:47:54.199Z,3.67
2019-05-11T19:50:23.747Z,6.70
2019-05-11T19:52:53.271Z,6.50
2019-05-11T19:55:22.779Z,9.80
2019-05-11T19:57:52.321Z,4.60
2019-05-11T20:00:22.554Z,5.57
2019-05-11T20:02:52.104Z,4.10
2019-05-11T20:05:21.710Z,4.37
2019-05-11T20:07:51.326Z,5.20
2019-05-11T20:10:20.802Z,3.67
2019-05-11T20:12:50.422Z,5.70
2019-05-11T20:15:19.933Z,5.47
2019-05-11T20:17:49.537Z,7.27
2019-05-11T20:20:19.444Z,2.77
2019-05-11T20:22:49.008Z,3.13
2019-05-11T20:25:19.486Z,6.77
2019-05-11T20:27:49.338Z,3.33
2019-05-11T20:30:19.457Z,4.13
2019-05-11T20:32:49.651Z,5.90
2019-05-11T20:35:19.283Z,5.47
2019-05-11T20:37:48.844Z,6.27
2019-05-11T20:40:18.642Z,7.13
2019-05-11T20:42:48.821Z,3.20
2019-05-11T20:45:19.095Z,4.20
2019-05-11T20:47:49.196Z,6.83
2019-05-11T20:50:18.986Z,4.57
2019-05-11T20:52:49.447Z,7.77
2019-05-11T20:55:19.094Z,6.83
2019-05-11T20:57:49.134Z,5.93
2019-05-11T21:00:19.428Z,2.40
2019-05-11T21:02:49.295Z,3.60
2019-05-11T21:05:19.044Z,3.50
2019-05-11T21:07:48.555Z,3.73
2019-05-11T21:10:18.653Z,3.33
2019-05-11T21:12:48.193Z,2.33
2019-05-11T21:15:18.126Z,8.23
2019-05-11T21:17:50.657Z,5.50
2019-05-11T21:20:19.434Z,5.20
2019-05-11T21:22:49.420Z,3.13
2019-05-11T21:25:19.157Z,3.50
2019-05-11T21:27:48.913Z,4.53
2019-05-11T21:30:19.932Z,3.63
2019-05-11T21:32:49.470Z,6.90
2019-05-11T21:35:19.472Z,6.87
2019-05-11T21:37:49.029Z,6.83
2019-05-11T21:40:18.926Z,5.53
2019-05-11T21:42:48.517Z,5.73
2019-05-11T21:45:18.970Z,6.30
2019-05-11T21:47:49.118Z,8.70
2019-05-11T21:50:19.392Z,4.23
2019-05-11T21:52:49.288Z,3.80
2019-05-11T21:55:18.804Z,6.30
2019-05-11T21:57:49.837Z,3.80
2019-05-11T22:00:22.646Z,3.40
2019-05-11T22:02:52.104Z,6.73
2019-05-11T22:05:21.571Z,5.57
2019-05-11T22:07:51.193Z,10.63
2019-05-11T22:10:21.503Z,5.20
2019-05-11T22:12:51.077Z,7.27
2019-05-11T22:15:20.584Z,5.10
2019-05-11T22:17:50.188Z,4.50
2019-05-11T22:20:20.016Z,5.70
2019-05-11T22:22:49.492Z,3.50
2019-05-11T22:25:19.008Z,4.20
2019-05-11T22:27:48.983Z,8.17
2019-05-11T22:30:18.896Z,5.63
2019-05-11T22:32:48.410Z,5.87
2019-05-11T22:35:18.542Z,5.27
2019-05-11T22:37:49.051Z,6.23
2019-05-11T22:40:19.144Z,3.20
2019-05-11T22:42:48.629Z,6.03
2019-05-11T22:45:18.869Z,4.70
2019-05-11T22:47:48.501Z,2.70
2019-05-11T22:50:18.833Z,4.93
2019-05-11T22:52:49.248Z,2.40
2019-05-11T22:55:19.186Z,5.67
2019-05-11T22:57:48.916Z,5.50
2019-05-11T23:00:23.169Z,5.73
2019-05-11T23:02:52.687Z,5.07
2019-05-11T23:05:22.202Z,3.20
2019-05-11T23:07:51.715Z,8.03
2019-05-11T23:10:21.209Z,4.60
2019-05-11T23:12:50.722Z,6.37
2019-05-11T23:15:20.345Z,7.33
2019-05-11T23:17:49.867Z,4.90
2019-05-11T23:20:19.571Z,5.30
2019-05-11T23:22:58.214Z,6.63
2019-05-11T23:25:21.091Z,5.23
2019-05-11T23:27:50.703Z,6.07
2019-05-11T23:30:20.648Z,4.93
2019-05-11T23:32:50.846Z,5.50
2019-05-11T23:35:20.456Z,4.87
2019-05-11T23:37:50.278Z,4.20
2019-05-11T23:40:20.759Z,9.50
2019-05-11T23:42:50.517Z,5.23
2019-05-11T23:45:20.122Z,4.37
2019-05-11T23:47:49.672Z,4.00
2019-05-11T23:50:19.585Z,6.00
2019-05-11T23:53:05.075Z,8.20
2019-05-11T23:55:20.571Z,8.83
2019-05-11T23:57:50.640Z,5.37
